Trang, Thailand

5:10 PM ICT on September 19, 2014 (GMT +0700)
Trang | Change Station
CLOSE
Current Station
Airport
Location: Trang,
Elevation: 52 ft
Nearby Weather Stations

Elev 52 ft 7.51 °N, 99.62 °E | Updated 10 minutes ago

Rain
Rain
77 °F
Feels Like 77 °F
N
5
Wind Variable Wind from ENE

Today
High -- | Low -- °F
--% Chance of Precip.
Yesterday
High -- | Low -- °F
Precip. -- in
6:11 AM 6:19 PM
Waning Crescent, 20% visible
Pressure 29.77 in
Visibility 3.1 miles
Clouds Few 1800 ft
Scattered Clouds 2200 ft
Mostly Cloudy 11000 ft
Dew Point 75 °F
Humidity 94%
Rainfall 0.00 in
Snow Depth Not available.
UV 1 out of 12
Pollen Not available.
Air Quality Not available.
Flu Activity Not available.
METAR VTST 191000Z 06004KT 5000 TSRA FEW018CB SCT022 BKN110 25/24 Q1008 RWY08 INFO G

More Conditions Fewer Conditions

Pressure 29.77 in
Visibility 3.1 miles
Clouds Few 1800 ft
Scattered Clouds 2200 ft
Mostly Cloudy 11000 ft
Dew Point 75 °F
Humidity 94%
Rainfall 0.00 in
Snow Depth Not available.
UV 1 out of 12
Pollen Not available.
Air Quality Not available.
Flu Activity Not available.
METAR VTST 191000Z 06004KT 5000 TSRA FEW018CB SCT022 BKN110 25/24 Q1008 RWY08 INFO G

More Conditions Fewer Conditions

10-Day Weather Forecast

Almanac

Astronomy

Sep. 19, 2014 Rise Set
Actual Time 6:11 AM ICT 6:19 PM ICT
Civil Twilight 5:50 AM ICT 6:40 PM ICT
Nautical Twilight 5:26 AM ICT 7:04 PM ICT
Astronomical Twilight 5:01 AM ICT 7:28 PM ICT
Moon 2:11 AM ICT 2:50 PM ICT
Length of Visible Light 12h 49m
Length of Day
12h 08m
Tomorrow will be 0m 25s shorter.
Waning Crescent, 20% of the Moon is Illuminated
Today
Waning Crescent
Sep 24
New
Oct 1
First Quarter
Oct 8
Full
Oct 15
Last Quarter

Yesterday's Extremes

Country Highs Country Lows

Community

WunderPhotos

Upload Photos

1,754,583 photos uploaded!

Nearby

Snow Depth

Not available.

Earthquake Activity

City Distance Mag. Time & Date
No recent earthquake activity has been reported nearby.
Minimum magnitude displayed is 2.5.

Coastal Water Temperatures

Place Temperature
No Stations Reporting

Nearby Weather Stations